Time;durP1;ratioP1;P1;durP2;ratioP2;P2;SDS_P1;SDS_P2;PMS_P1;PMS_P2;Temp;Humidity;BMP_temperature;BMP_pressure;BME280_temperature;BME280_humidity;BME280_pressure;Samples;Min_cycle;Max_cycle;Signal;HPM_P1;HPM_P2
2022/06/09 00:01:45;;;;;;;;;;;21.70;84.80;;;;;;5007850;28;19917;-71
2022/06/09 00:04:13;;;;;;;;;;;21.70;84.20;;;;;;5011452;28;20004;-71
2022/06/09 00:06:41;;;;;;;;;;;21.50;84.00;;;;;;5008589;28;19913;-71
2022/06/09 00:09:07;;;;;;;;;;;21.40;85.10;;;;;;5008765;28;20420;-71
2022/06/09 00:11:34;;;;;;;;;;;21.40;85.70;;;;;;5009007;28;19910;-70
2022/06/09 00:14:00;;;;;;;;;;;21.30;87.00;;;;;;5008936;28;20625;-71
2022/06/09 00:16:26;;;;;;;;;;;21.20;87.90;;;;;;5011940;28;19909;-71
2022/06/09 00:18:51;;;;;;;;;;;21.20;89.40;;;;;;5010695;28;19999;-71
2022/06/09 00:21:17;;;;;;;;;;;21.20;89.50;;;;;;5008617;28;19918;-71
2022/06/09 00:23:42;;;;;;;;;;;21.20;89.90;;;;;;5008950;28;20282;-70
2022/06/09 00:26:08;;;;;;;;;;;21.20;90.00;;;;;;5008671;28;19910;-71
2022/06/09 00:28:34;;;;;;;;;;;21.20;90.10;;;;;;5011428;28;19964;-70
2022/06/09 00:30:59;;;;;;;;;;;21.10;89.20;;;;;;5008390;28;19928;-71
2022/06/09 00:33:25;;;;;;;;;;;21.00;86.00;;;;;;5008666;28;19914;-70
2022/06/09 00:35:51;;;;;;;;;;;21.10;80.40;;;;;;5010167;28;19916;-70
2022/06/09 00:38:16;;;;;;;;;;;21.20;79.10;;;;;;5008873;28;19964;-71
2022/06/09 00:40:42;;;;;;;;;;;21.10;78.10;;;;;;5012655;28;19913;-71
2022/06/09 00:43:08;;;;;;;;;;;21.20;78.10;;;;;;5012203;28;19952;-71
2022/06/09 00:45:38;;;;;;;;;;;21.20;77.60;;;;;;5013046;28;19945;-71
2022/06/09 00:48:03;;;;;;;;;;;21.20;77.50;;;;;;5007120;28;19924;-71
2022/06/09 00:50:30;;;;;;;;;;;21.20;77.60;;;;;;5012916;28;19996;-71
2022/06/09 00:52:58;;;;;;;;;;;21.20;77.50;;;;;;5012803;28;20416;-70
2022/06/09 00:55:25;;;;;;;;;;;21.10;77.60;;;;;;5011891;28;19913;-71
2022/06/09 00:57:52;;;;;;;;;;;21.10;77.50;;;;;;5013086;28;19952;-70
2022/06/09 01:00:19;;;;;;;;;;;21.10;77.20;;;;;;5012518;28;20386;-71
2022/06/09 01:02:45;;;;;;;;;;;21.10;77.30;;;;;;5011351;28;19909;-71
2022/06/09 01:05:11;;;;;;;;;;;21.00;77.10;;;;;;5012738;28;19960;-71
2022/06/09 01:07:41;;;;;;;;;;;20.90;77.20;;;;;;5011176;28;19909;-71
2022/06/09 01:10:06;;;;;;;;;;;21.00;77.20;;;;;;5026740;28;19905;-71
2022/06/09 01:12:34;;;;;;;;;;;21.00;77.20;;;;;;5016306;28;19916;-71
2022/06/09 01:15:02;;;;;;;;;;;20.90;77.00;;;;;;5016156;28;19910;-71
2022/06/09 01:17:30;;;;;;;;;;;20.90;77.20;;;;;;5016225;28;19909;-70
2022/06/09 01:19:56;;;;;;;;;;;20.80;77.20;;;;;;5016240;28;20409;-71
2022/06/09 01:22:36;;;;;;;;;;;20.80;77.30;;;;;;5015028;28;20036;-71
2022/06/09 01:25:18;;;;;;;;;;;20.80;77.50;;;;;;5016462;28;19909;-70
2022/06/09 01:27:58;;;;;;;;;;;20.80;77.30;;;;;;5016111;28;19910;-70
2022/06/09 01:30:29;;;;;;;;;;;20.80;77.10;;;;;;5015312;28;19910;-70
2022/06/09 01:32:58;;;;;;;;;;;20.80;77.60;;;;;;5016188;28;20291;-70
2022/06/09 01:35:30;;;;;;;;;;;20.70;77.30;;;;;;5015931;28;20438;-70
2022/06/09 01:37:58;;;;;;;;;;;20.60;77.60;;;;;;5000307;28;20495;-70
2022/06/09 01:40:24;;;;;;;;;;;20.70;77.10;;;;;;5014930;28;19963;-70
2022/06/09 01:42:51;;;;;;;;;;;20.70;77.20;;;;;;5017326;28;19975;-70
2022/06/09 01:45:31;;;;;;;;;;;20.80;77.20;;;;;;5016165;28;19952;-70
2022/06/09 01:47:59;;;;;;;;;;;20.70;77.30;;;;;;5015787;28;19910;-70
2022/06/09 01:50:43;;;;;;;;;;;20.60;77.80;;;;;;5015296;28;20182;-71
2022/06/09 01:53:11;;;;;;;;;;;20.40;77.90;;;;;;5002007;28;19916;-70
2022/06/09 01:55:40;;;;;;;;;;;20.30;78.20;;;;;;5015405;28;19909;-70
2022/06/09 01:58:07;;;;;;;;;;;20.40;78.40;;;;;;5012478;28;20298;-70
2022/06/09 02:00:32;;;;;;;;;;;20.30;79.20;;;;;;5014809;28;19917;-70
2022/06/09 02:03:04;;;;;;;;;;;20.20;78.70;;;;;;5015344;28;19913;-70
2022/06/09 02:05:32;;;;;;;;;;;20.10;78.80;;;;;;5014959;28;19920;-71
2022/06/09 02:08:01;;;;;;;;;;;20.10;78.90;;;;;;5015529;28;19916;-71
2022/06/09 02:10:34;;;;;;;;;;;20.10;79.00;;;;;;5014582;28;19940;-70
2022/06/09 02:13:03;;;;;;;;;;;20.10;78.90;;;;;;5014950;28;19916;-70
2022/06/09 02:15:31;;;;;;;;;;;20.10;78.90;;;;;;5014413;28;19931;-71
2022/06/09 02:17:57;;;;;;;;;;;20.10;78.80;;;;;;5016342;28;20319;-71
2022/06/09 02:20:23;;;;;;;;;;;20.10;79.00;;;;;;5014066;28;20005;-71
2022/06/09 02:22:49;;;;;;;;;;;19.90;79.30;;;;;;5015486;28;19963;-70
2022/06/09 02:25:15;;;;;;;;;;;19.80;79.70;;;;;;5013681;28;19909;-71
2022/06/09 02:27:41;;;;;;;;;;;19.90;79.70;;;;;;5014686;28;19913;-71
2022/06/09 02:30:07;;;;;;;;;;;19.80;79.90;;;;;;5014922;28;19916;-71
2022/06/09 02:32:34;;;;;;;;;;;19.80;79.80;;;;;;5014900;28;20325;-71
2022/06/09 02:35:00;;;;;;;;;;;19.80;79.90;;;;;;5014580;28;20307;-71
2022/06/09 02:37:25;;;;;;;;;;;19.70;80.10;;;;;;5014326;28;20383;-71
2022/06/09 02:39:51;;;;;;;;;;;19.60;80.20;;;;;;5016173;28;20268;-71
2022/06/09 02:42:16;;;;;;;;;;;19.60;80.20;;;;;;5014560;28;19953;-70
2022/06/09 02:44:42;;;;;;;;;;;19.60;80.00;;;;;;5014591;28;19910;-71
2022/06/09 02:47:08;;;;;;;;;;;19.50;80.40;;;;;;5014835;28;19909;-71
2022/06/09 02:49:33;;;;;;;;;;;19.50;80.70;;;;;;5013991;28;19989;-70
2022/06/09 02:51:59;;;;;;;;;;;19.60;80.60;;;;;;5014429;28;20350;-70
2022/06/09 02:54:25;;;;;;;;;;;19.50;80.20;;;;;;5013859;28;19914;-70
2022/06/09 02:56:50;;;;;;;;;;;19.50;80.40;;;;;;5014260;28;19917;-70
2022/06/09 02:59:16;;;;;;;;;;;19.50;80.40;;;;;;5014932;28;19932;-70
2022/06/09 03:01:41;;;;;;;;;;;19.40;80.80;;;;;;5014298;28;20012;-70
2022/06/09 03:04:07;;;;;;;;;;;19.50;80.60;;;;;;5012871;28;19909;-70
2022/06/09 03:06:33;;;;;;;;;;;19.50;80.70;;;;;;5014379;28;20004;-70
2022/06/09 03:09:00;;;;;;;;;;;19.50;80.60;;;;;;5014125;28;19984;-70
2022/06/09 03:11:25;;;;;;;;;;;19.50;80.80;;;;;;5013839;28;19913;-70
2022/06/09 03:13:51;;;;;;;;;;;19.40;80.80;;;;;;5014211;28;19909;-70
2022/06/09 03:16:17;;;;;;;;;;;19.30;81.00;;;;;;5013302;28;19909;-70
2022/06/09 03:18:44;;;;;;;;;;;19.40;81.10;;;;;;5014202;28;19913;-70
2022/06/09 03:21:10;;;;;;;;;;;19.30;80.80;;;;;;5013865;28;19925;-70
2022/06/09 03:23:35;;;;;;;;;;;19.20;80.50;;;;;;5013699;28;19933;-70
2022/06/09 03:26:01;;;;;;;;;;;19.20;81.00;;;;;;5014025;28;19909;-70
2022/06/09 03:28:27;;;;;;;;;;;19.20;81.60;;;;;;5012672;28;19910;-70
2022/06/09 03:30:54;;;;;;;;;;;19.20;81.10;;;;;;5013549;28;20398;-70
2022/06/09 03:33:20;;;;;;;;;;;19.20;81.00;;;;;;5012571;28;19910;-70
2022/06/09 03:35:46;;;;;;;;;;;19.20;80.70;;;;;;5013696;28;19910;-70
2022/06/09 03:38:12;;;;;;;;;;;19.10;81.10;;;;;;5013526;28;20290;-70
2022/06/09 03:40:37;;;;;;;;;;;19.00;81.20;;;;;;5013803;28;20382;-70
2022/06/09 03:43:03;;;;;;;;;;;19.20;80.70;;;;;;5013078;28;19912;-70
2022/06/09 03:45:30;;;;;;;;;;;19.30;80.30;;;;;;5013161;28;20365;-70
2022/06/09 03:47:55;;;;;;;;;;;19.20;80.30;;;;;;5013479;28;19913;-70
2022/06/09 03:50:23;;;;;;;;;;;19.20;79.80;;;;;;5008949;28;20052;-70
2022/06/09 03:52:48;;;;;;;;;;;19.40;79.50;;;;;;5012452;28;20382;-70
2022/06/09 03:55:14;;;;;;;;;;;19.40;79.30;;;;;;5012665;28;19910;-70
2022/06/09 03:57:40;;;;;;;;;;;19.40;79.10;;;;;;5013151;28;20032;-70
2022/06/09 04:00:07;;;;;;;;;;;19.40;78.90;;;;;;5013556;28;19921;-70
2022/06/09 04:02:32;;;;;;;;;;;19.40;79.70;;;;;;5012828;28;20437;-70
2022/06/09 04:04:59;;;;;;;;;;;19.40;78.90;;;;;;5013437;28;20009;-71
2022/06/09 04:07:24;;;;;;;;;;;19.50;78.70;;;;;;5012441;28;19996;-70
2022/06/09 04:09:50;;;;;;;;;;;19.50;78.40;;;;;;5014790;28;20001;-70
2022/06/09 04:12:15;;;;;;;;;;;19.50;78.20;;;;;;5013132;28;20380;-70
2022/06/09 04:14:42;;;;;;;;;;;19.60;78.20;;;;;;5013017;28;20357;-70
2022/06/09 04:17:09;;;;;;;;;;;19.50;77.90;;;;;;5013268;28;19910;-70
2022/06/09 04:19:34;;;;;;;;;;;19.50;77.70;;;;;;5012527;28;19913;-70
2022/06/09 04:22:00;;;;;;;;;;;19.50;77.60;;;;;;5012317;28;20542;-70
2022/06/09 04:24:26;;;;;;;;;;;19.60;77.60;;;;;;5013317;28;20286;-70
2022/06/09 04:26:51;;;;;;;;;;;19.50;77.60;;;;;;5013284;28;19909;-70
2022/06/09 04:29:17;;;;;;;;;;;19.50;77.50;;;;;;5013235;28;19910;-70
2022/06/09 04:31:42;;;;;;;;;;;19.50;77.40;;;;;;5012802;28;19929;-70
2022/06/09 04:34:08;;;;;;;;;;;19.50;77.20;;;;;;5012497;28;19964;-70
2022/06/09 04:36:34;;;;;;;;;;;19.50;77.30;;;;;;5012903;28;19909;-70
2022/06/09 04:39:00;;;;;;;;;;;19.50;77.30;;;;;;5013092;28;20362;-70
2022/06/09 04:41:26;;;;;;;;;;;19.50;77.10;;;;;;5012422;28;19920;-70
2022/06/09 04:43:51;;;;;;;;;;;19.60;76.80;;;;;;5013956;28;19910;-70
2022/06/09 04:46:18;;;;;;;;;;;19.60;77.20;;;;;;5015893;28;20358;-70
2022/06/09 04:48:44;;;;;;;;;;;19.60;76.60;;;;;;5016711;28;20040;-70
2022/06/09 04:51:10;;;;;;;;;;;19.60;76.80;;;;;;5016868;28;20004;-70
2022/06/09 04:53:36;;;;;;;;;;;19.60;76.80;;;;;;5016714;28;19996;-70
2022/06/09 04:56:02;;;;;;;;;;;19.60;76.50;;;;;;5017095;28;20409;-70
2022/06/09 04:58:28;;;;;;;;;;;19.70;76.40;;;;;;5015794;28;20402;-70
2022/06/09 05:00:53;;;;;;;;;;;19.70;76.40;;;;;;5015777;28;20267;-70
2022/06/09 05:03:20;;;;;;;;;;;19.70;76.40;;;;;;5016710;28;19912;-71
2022/06/09 05:05:46;;;;;;;;;;;19.70;76.50;;;;;;5016330;28;19975;-71
2022/06/09 05:08:12;;;;;;;;;;;19.60;76.70;;;;;;5016641;28;19909;-69
2022/06/09 05:10:39;;;;;;;;;;;19.70;76.20;;;;;;5016514;28;19912;-71
2022/06/09 05:13:06;;;;;;;;;;;19.80;76.30;;;;;;5016279;28;20426;-70
2022/06/09 05:15:32;;;;;;;;;;;19.70;76.40;;;;;;5015503;28;20366;-71
2022/06/09 05:17:58;;;;;;;;;;;19.80;76.20;;;;;;5016172;28;19913;-71
2022/06/09 05:20:24;;;;;;;;;;;19.70;76.00;;;;;;5016273;28;19921;-70
2022/06/09 05:22:50;;;;;;;;;;;19.80;76.30;;;;;;5016082;28;19980;-70
2022/06/09 05:25:16;;;;;;;;;;;19.90;75.70;;;;;;5015507;28;19913;-70
2022/06/09 05:27:41;;;;;;;;;;;20.00;75.60;;;;;;5015097;28;19956;-70
2022/06/09 05:30:09;;;;;;;;;;;20.00;75.70;;;;;;5015549;28;19933;-70
2022/06/09 05:32:34;;;;;;;;;;;20.00;75.70;;;;;;5015620;28;20424;-69
2022/06/09 05:35:00;;;;;;;;;;;20.00;75.40;;;;;;5016213;28;19921;-69
2022/06/09 05:44:50;;;;;;;;;;;20.10;75.60;;;;;;5015125;28;20322;-70
2022/06/09 05:45:39;;;;;;;;;;;20.10;75.20;;;;;;5015573;28;19940;-70
2022/06/09 05:48:05;;;;;;;;;;;20.00;74.80;;;;;;5015436;28;19910;-70
2022/06/09 05:50:31;;;;;;;;;;;20.00;75.10;;;;;;5015685;28;20286;-70
2022/06/09 05:52:56;;;;;;;;;;;20.10;75.30;;;;;;5015521;28;19959;-70
2022/06/09 05:55:22;;;;;;;;;;;20.10;75.00;;;;;;5008912;28;19914;-70
2022/06/09 05:57:47;;;;;;;;;;;20.10;75.00;;;;;;5015202;28;19916;-71
2022/06/09 06:00:13;;;;;;;;;;;20.20;74.60;;;;;;5015251;28;20371;-71
2022/06/09 06:02:39;;;;;;;;;;;20.20;74.60;;;;;;5015825;28;19909;-70
2022/06/09 06:05:05;;;;;;;;;;;20.20;74.10;;;;;;5015581;28;19991;-70
2022/06/09 06:07:30;;;;;;;;;;;20.20;74.40;;;;;;5014589;28;20020;-70
2022/06/09 06:09:56;;;;;;;;;;;20.20;74.10;;;;;;5015705;28;19905;-70
2022/06/09 06:12:21;;;;;;;;;;;20.30;73.80;;;;;;5014830;28;19916;-71
2022/06/09 06:14:48;;;;;;;;;;;20.30;73.40;;;;;;5015119;28;19909;-71
2022/06/09 06:17:14;;;;;;;;;;;20.40;73.30;;;;;;5014900;28;19920;-70
2022/06/09 06:19:39;;;;;;;;;;;20.50;73.70;;;;;;5014594;28;19917;-71
2022/06/09 06:22:05;;;;;;;;;;;20.60;73.10;;;;;;5014264;28;19909;-71
2022/06/09 06:24:31;;;;;;;;;;;20.50;72.10;;;;;;5014571;28;19913;-71
2022/06/09 06:26:56;;;;;;;;;;;20.60;72.60;;;;;;5014583;28;20434;-71
2022/06/09 06:29:23;;;;;;;;;;;20.50;71.70;;;;;;5014623;28;19979;-71
2022/06/09 06:31:49;;;;;;;;;;;20.60;71.60;;;;;;5012938;28;19917;-71
2022/06/09 06:34:16;;;;;;;;;;;20.60;71.50;;;;;;5013636;28;19916;-71
2022/06/09 06:36:41;;;;;;;;;;;20.60;71.60;;;;;;5013958;28;20083;-71
2022/06/09 06:39:07;;;;;;;;;;;20.70;71.40;;;;;;5014539;28;20004;-71
2022/06/09 06:41:32;;;;;;;;;;;20.70;71.10;;;;;;5013813;28;19909;-71
2022/06/09 06:43:58;;;;;;;;;;;20.80;71.10;;;;;;5012700;28;19909;-71
2022/06/09 06:46:24;;;;;;;;;;;20.90;70.70;;;;;;5013602;28;19913;-71
2022/06/09 06:48:49;;;;;;;;;;;20.90;70.70;;;;;;5014276;28;20275;-71
2022/06/09 06:51:15;;;;;;;;;;;21.10;70.80;;;;;;5014637;28;19910;-71
2022/06/09 06:53:41;;;;;;;;;;;21.20;70.30;;;;;;5013662;28;19959;-71
2022/06/09 06:56:07;;;;;;;;;;;21.30;70.50;;;;;;5014381;28;19917;-71
2022/06/09 06:58:33;;;;;;;;;;;21.20;69.90;;;;;;5012208;28;19906;-70
2022/06/09 07:01:00;;;;;;;;;;;21.20;69.60;;;;;;5013635;28;19924;-71
2022/06/09 07:03:26;;;;;;;;;;;21.30;70.20;;;;;;5014358;28;19920;-70
2022/06/09 07:05:51;;;;;;;;;;;21.40;68.90;;;;;;5014175;28;19913;-70
2022/06/09 07:08:17;;;;;;;;;;;21.40;69.10;;;;;;5014076;28;19924;-71
2022/06/09 07:10:44;;;;;;;;;;;21.40;68.80;;;;;;5013907;28;20020;-70
2022/06/09 07:13:10;;;;;;;;;;;21.40;68.40;;;;;;5008912;28;19951;-71
2022/06/09 07:15:35;;;;;;;;;;;21.40;68.40;;;;;;5003496;28;19909;-71
2022/06/09 07:18:01;;;;;;;;;;;21.40;68.30;;;;;;5009359;28;20471;-71
2022/06/09 07:20:27;;;;;;;;;;;21.40;68.60;;;;;;5009658;28;19923;-70
2022/06/09 07:22:53;;;;;;;;;;;21.30;67.90;;;;;;5009069;28;20004;-71
2022/06/09 07:25:23;;;;;;;;;;;21.40;68.40;;;;;;5007804;28;20287;-70
2022/06/09 07:27:49;;;;;;;;;;;21.40;68.20;;;;;;5009714;28;20004;-70
2022/06/09 07:30:15;;;;;;;;;;;21.50;67.40;;;;;;5009920;28;20028;-70
2022/06/09 07:32:40;;;;;;;;;;;21.50;67.50;;;;;;5003404;28;19969;-71
2022/06/09 07:35:07;;;;;;;;;;;21.60;66.30;;;;;;5010402;28;19913;-71
2022/06/09 07:37:32;;;;;;;;;;;21.70;67.10;;;;;;5009557;28;19905;-71
2022/06/09 07:39:58;;;;;;;;;;;21.60;67.20;;;;;;5013330;28;20263;-70
2022/06/09 07:42:23;;;;;;;;;;;21.70;67.50;;;;;;5013444;28;19917;-70
2022/06/09 07:44:49;;;;;;;;;;;21.70;67.20;;;;;;5013427;28;19918;-70
2022/06/09 07:47:15;;;;;;;;;;;21.70;67.00;;;;;;5013614;28;19945;-70
2022/06/09 07:49:40;;;;;;;;;;;21.70;67.10;;;;;;5013570;28;19905;-70
2022/06/09 07:52:06;;;;;;;;;;;21.50;67.30;;;;;;5011733;28;19909;-70
2022/06/09 07:54:32;;;;;;;;;;;21.50;67.50;;;;;;5008183;28;19913;-70
2022/06/09 07:56:58;;;;;;;;;;;21.60;67.70;;;;;;5006743;28;20036;-70
2022/06/09 07:59:23;;;;;;;;;;;21.60;67.60;;;;;;5005684;28;19921;-70
2022/06/09 08:01:49;;;;;;;;;;;21.60;67.40;;;;;;5007245;28;19967;-70
2022/06/09 08:04:16;;;;;;;;;;;21.50;66.50;;;;;;5007969;28;19944;-71
2022/06/09 08:06:41;;;;;;;;;;;21.40;67.20;;;;;;4996845;28;19914;-70
2022/06/09 08:09:07;;;;;;;;;;;21.50;66.90;;;;;;4997833;28;19920;-70
2022/06/09 08:11:35;;;;;;;;;;;21.70;66.60;;;;;;5006146;28;19913;-71
2022/06/09 08:14:03;;;;;;;;;;;21.70;67.60;;;;;;5005758;28;19917;-71
2022/06/09 08:16:28;;;;;;;;;;;21.80;66.70;;;;;;5009158;28;19932;-71
2022/06/09 08:18:54;;;;;;;;;;;21.90;66.50;;;;;;5006036;28;19909;-70
2022/06/09 08:21:20;;;;;;;;;;;21.90;66.20;;;;;;5005755;28;19926;-70
2022/06/09 08:23:46;;;;;;;;;;;22.00;66.00;;;;;;5005438;28;20333;-70
2022/06/09 08:26:12;;;;;;;;;;;21.90;65.90;;;;;;5005572;28;19917;-70
2022/06/09 08:28:38;;;;;;;;;;;21.90;65.60;;;;;;5008339;28;19913;-70
2022/06/09 08:31:03;;;;;;;;;;;22.10;65.50;;;;;;5006899;28;19957;-69
2022/06/09 08:33:29;;;;;;;;;;;22.20;65.00;;;;;;5005590;28;19910;-71
2022/06/09 08:35:55;;;;;;;;;;;22.30;65.00;;;;;;5006048;28;19909;-70
2022/06/09 08:38:21;;;;;;;;;;;22.40;64.70;;;;;;5005346;28;19920;-70
2022/06/09 08:40:59;;;;;;;;;;;22.40;64.50;;;;;;5007002;28;19925;-70
2022/06/09 08:43:43;;;;;;;;;;;22.50;63.70;;;;;;5005077;28;19916;-70
2022/06/09 08:46:24;;;;;;;;;;;22.50;64.00;;;;;;5007200;28;19913;-70
2022/06/09 08:48:51;;;;;;;;;;;22.50;63.40;;;;;;5005179;28;19905;-70
2022/06/09 08:51:23;;;;;;;;;;;22.70;64.10;;;;;;5005448;28;19910;-70
2022/06/09 08:53:50;;;;;;;;;;;22.80;63.30;;;;;;5005525;28;20241;-71
2022/06/09 08:56:18;;;;;;;;;;;22.90;63.30;;;;;;5005645;28;19917;-70
2022/06/09 08:58:53;;;;;;;;;;;23.00;62.90;;;;;;5007538;28;19913;-70
2022/06/09 09:01:25;;;;;;;;;;;23.10;63.50;;;;;;5007382;28;20016;-71
2022/06/09 09:03:51;;;;;;;;;;;23.10;62.60;;;;;;5004748;28;19996;-71
2022/06/09 09:06:16;;;;;;;;;;;23.10;63.70;;;;;;5005223;28;19997;-71
2022/06/09 09:08:42;;;;;;;;;;;23.00;62.30;;;;;;5003688;28;19909;-71
2022/06/09 09:11:27;;;;;;;;;;;23.10;62.50;;;;;;5005478;28;19920;-71
2022/06/09 09:13:59;;;;;;;;;;;23.30;62.00;;;;;;5005832;28;20445;-71
2022/06/09 09:16:30;;;;;;;;;;;23.30;61.90;;;;;;5003910;28;20405;-71
2022/06/09 09:19:15;;;;;;;;;;;23.30;62.20;;;;;;5007411;28;20392;-71
2022/06/09 09:21:50;;;;;;;;;;;23.30;61.90;;;;;;5003958;28;19929;-71
2022/06/09 09:24:20;;;;;;;;;;;23.40;62.40;;;;;;5006446;28;19917;-71
2022/06/09 09:26:46;;;;;;;;;;;23.40;61.50;;;;;;5012948;28;19909;-71
2022/06/09 09:29:16;;;;;;;;;;;23.40;61.70;;;;;;5005703;28;19948;-71
2022/06/09 09:31:42;;;;;;;;;;;23.50;61.80;;;;;;5009097;28;19916;-71
2022/06/09 09:34:16;;;;;;;;;;;23.60;59.60;;;;;;5009645;28;19905;-71
2022/06/09 09:36:43;;;;;;;;;;;23.60;60.80;;;;;;5008568;28;20390;-71
2022/06/09 09:39:09;;;;;;;;;;;23.70;61.10;;;;;;5010608;28;19913;-71
2022/06/09 09:41:36;;;;;;;;;;;23.90;59.80;;;;;;5010432;28;20393;-71
2022/06/09 09:44:22;;;;;;;;;;;23.90;58.80;;;;;;5009537;28;19910;-71
2022/06/09 09:46:49;;;;;;;;;;;24.10;57.30;;;;;;5013411;28;19917;-71
2022/06/09 09:49:25;;;;;;;;;;;24.20;55.30;;;;;;5015031;28;19913;-71
2022/06/09 09:51:52;;;;;;;;;;;24.30;55.70;;;;;;5011268;28;19909;-70
2022/06/09 09:54:21;;;;;;;;;;;24.30;54.80;;;;;;5011592;28;19921;-71
2022/06/09 09:56:47;;;;;;;;;;;24.30;54.90;;;;;;5011339;28;19939;-71
2022/06/09 09:59:18;;;;;;;;;;;24.40;55.30;;;;;;5011288;28;20310;-71
2022/06/09 10:10:16;;;;;;;;;;;24.70;54.50;;;;;;4977612;28;20410;-71
2022/06/09 10:12:43;;;;;;;;;;;24.70;54.70;;;;;;4973921;28;19917;-71
2022/06/09 10:15:09;;;;;;;;;;;24.80;53.10;;;;;;4978916;28;19953;-71
2022/06/09 10:17:49;;;;;;;;;;;24.80;52.60;;;;;;4978155;28;19949;-71
2022/06/09 10:20:27;;;;;;;;;;;24.80;53.00;;;;;;4975493;28;19940;-71
2022/06/09 10:22:56;;;;;;;;;;;24.90;53.30;;;;;;4974454;28;19946;-71
2022/06/09 10:25:25;;;;;;;;;;;25.00;52.80;;;;;;4977253;28;19914;-70
2022/06/09 10:27:54;;;;;;;;;;;25.00;53.20;;;;;;4978531;28;19949;-71
2022/06/09 10:30:25;;;;;;;;;;;25.00;53.10;;;;;;4978237;28;19922;-71
2022/06/09 10:32:56;;;;;;;;;;;25.00;53.40;;;;;;4977602;28;20024;-71
2022/06/09 10:35:26;;;;;;;;;;;25.00;54.20;;;;;;4977094;28;19909;-70
2022/06/09 10:37:56;;;;;;;;;;;25.10;54.10;;;;;;4974640;28;19917;-71
2022/06/09 10:40:28;;;;;;;;;;;25.30;54.00;;;;;;4977009;28;19984;-71
2022/06/09 10:42:53;;;;;;;;;;;25.30;52.90;;;;;;4988307;28;19909;-71
2022/06/09 10:45:28;;;;;;;;;;;25.20;53.50;;;;;;5010258;28;20009;-71
2022/06/09 10:56:45;;;;;;;;;;;25.50;54.20;;;;;;5015189;28;19952;-71
2022/06/09 10:59:21;;;;;;;;;;;25.70;55.40;;;;;;5014750;28;19921;-71
2022/06/09 11:01:46;;;;;;;;;;;25.70;55.30;;;;;;5014397;28;19905;-71
2022/06/09 11:04:14;;;;;;;;;;;25.80;53.70;;;;;;5013258;28;19910;-71
2022/06/09 11:06:57;;;;;;;;;;;25.80;52.90;;;;;;5014120;28;19911;-71
2022/06/09 11:09:35;;;;;;;;;;;25.80;53.00;;;;;;5014091;28;19916;-71
2022/06/09 11:12:00;;;;;;;;;;;25.90;53.80;;;;;;5014651;28;19909;-71
2022/06/09 11:14:42;;;;;;;;;;;25.90;53.30;;;;;;5014242;28;19910;-71
2022/06/09 11:17:07;;;;;;;;;;;25.80;53.60;;;;;;4999867;28;20281;-71
2022/06/09 11:19:49;;;;;;;;;;;26.00;54.70;;;;;;5013209;28;19918;-71
2022/06/09 11:22:24;;;;;;;;;;;26.00;54.80;;;;;;5013168;28;19950;-71
2022/06/09 11:25:08;;;;;;;;;;;26.00;53.70;;;;;;5013770;28;19905;-71
2022/06/09 11:27:56;;;;;;;;;;;26.00;53.60;;;;;;5013965;28;19941;-71
2022/06/09 11:30:24;;;;;;;;;;;26.20;52.90;;;;;;5013952;28;19944;-71
2022/06/09 11:33:02;;;;;;;;;;;26.10;53.70;;;;;;5013684;28;19910;-71
2022/06/09 11:35:57;;;;;;;;;;;26.20;53.40;;;;;;5014042;28;19910;-71
2022/06/09 11:38:29;;;;;;;;;;;26.20;52.70;;;;;;4961736;28;20284;-71
2022/06/09 11:41:17;;;;;;;;;;;26.50;52.00;;;;;;4972478;28;19957;-71
2022/06/09 11:44:01;;;;;;;;;;;26.50;52.10;;;;;;4934839;29;19993;-71
2022/06/09 11:46:30;;;;;;;;;;;26.30;51.70;;;;;;4929605;29;19961;-71
2022/06/09 11:48:57;;;;;;;;;;;26.50;51.90;;;;;;4936363;29;19954;-71
2022/06/09 11:51:25;;;;;;;;;;;26.60;52.10;;;;;;4936514;29;19949;-71
2022/06/09 11:53:52;;;;;;;;;;;26.60;51.70;;;;;;4936288;29;20055;-71
2022/06/09 11:56:43;;;;;;;;;;;26.60;51.90;;;;;;4936291;29;19910;-71
2022/06/09 11:59:11;;;;;;;;;;;26.60;52.00;;;;;;4922696;29;19910;-71
2022/06/09 12:01:39;;;;;;;;;;;26.60;52.00;;;;;;4933129;29;19914;-71
2022/06/09 12:04:14;;;;;;;;;;;26.70;51.70;;;;;;4935804;29;19938;-71
2022/06/09 12:06:59;;;;;;;;;;;26.70;51.20;;;;;;4936007;29;20006;-71
2022/06/09 12:09:34;;;;;;;;;;;26.80;51.40;;;;;;4936193;29;20380;-71
2022/06/09 12:12:02;;;;;;;;;;;26.60;51.50;;;;;;4936113;29;19915;-71
2022/06/09 12:14:32;;;;;;;;;;;26.60;51.30;;;;;;4934861;29;19911;-70
2022/06/09 12:17:02;;;;;;;;;;;26.80;50.70;;;;;;4918987;29;20018;-71
2022/06/09 12:19:35;;;;;;;;;;;27.00;51.00;;;;;;4932792;29;19911;-71
2022/06/09 12:22:36;;;;;;;;;;;27.00;50.20;;;;;;5014542;28;20305;-71
2022/06/09 12:25:24;;;;;;;;;;;26.90;50.00;;;;;;4989509;28;20205;-71
2022/06/09 12:27:51;;;;;;;;;;;26.90;50.30;;;;;;4979749;28;19932;-71
2022/06/09 12:30:24;;;;;;;;;;;27.00;50.30;;;;;;4989630;28;20013;-71
2022/06/09 12:33:09;;;;;;;;;;;27.00;50.00;;;;;;4990358;28;19909;-70
2022/06/09 12:35:37;;;;;;;;;;;27.10;50.50;;;;;;4989797;28;19909;-71
2022/06/09 12:38:18;;;;;;;;;;;27.00;50.20;;;;;;4989931;28;19909;-70
2022/06/09 12:40:46;;;;;;;;;;;26.90;51.20;;;;;;4990339;28;20338;-71
2022/06/09 12:43:30;;;;;;;;;;;27.20;49.80;;;;;;4987175;28;20046;-71
2022/06/09 12:46:05;;;;;;;;;;;27.20;49.10;;;;;;4989982;28;20028;-71
2022/06/09 12:48:33;;;;;;;;;;;27.20;49.30;;;;;;4989368;28;19909;-71
2022/06/09 12:50:59;;;;;;;;;;;27.20;49.80;;;;;;4989617;28;19910;-71
2022/06/09 12:53:38;;;;;;;;;;;27.20;49.90;;;;;;4989856;28;20287;-71
2022/06/09 12:56:16;;;;;;;;;;;27.20;49.50;;;;;;4989771;28;20064;-71
2022/06/09 12:58:46;;;;;;;;;;;27.20;49.70;;;;;;4998873;28;19996;-71
2022/06/09 13:01:20;;;;;;;;;;;27.20;49.10;;;;;;5010664;28;20381;-71
2022/06/09 13:03:46;;;;;;;;;;;27.50;49.00;;;;;;5012642;28;20259;-71
2022/06/09 13:06:23;;;;;;;;;;;27.50;48.50;;;;;;5015912;28;19967;-71
2022/06/09 13:08:51;;;;;;;;;;;27.40;49.30;;;;;;5016543;28;19949;-71
2022/06/09 13:12:50;;;;;;;;;;;27.50;47.70;;;;;;5016214;28;19909;-71
2022/06/09 13:14:08;;;;;;;;;;;27.40;47.70;;;;;;4999818;28;19913;-71
2022/06/09 13:16:38;;;;;;;;;;;27.60;48.80;;;;;;5019918;28;19909;-71
2022/06/09 13:19:04;;;;;;;;;;;27.60;49.90;;;;;;5011774;28;19959;-71
2022/06/09 13:21:38;;;;;;;;;;;27.60;47.80;;;;;;5009453;28;19921;-71
2022/06/09 13:24:06;;;;;;;;;;;27.60;47.10;;;;;;5009077;28;19910;-71
2022/06/09 13:26:34;;;;;;;;;;;27.50;47.70;;;;;;5008843;28;19914;-71
2022/06/09 13:29:05;;;;;;;;;;;27.40;47.90;;;;;;5008785;28;19913;-71
2022/06/09 13:31:31;;;;;;;;;;;27.50;47.40;;;;;;5006392;28;20322;-71
2022/06/09 13:33:58;;;;;;;;;;;27.50;47.90;;;;;;5006069;28;19913;-71
2022/06/09 13:36:27;;;;;;;;;;;27.50;48.40;;;;;;5005949;28;19953;-71
2022/06/09 13:38:53;;;;;;;;;;;27.60;48.00;;;;;;5003642;28;20528;-71
2022/06/09 13:41:18;;;;;;;;;;;27.50;47.80;;;;;;5006938;28;20281;-71
2022/06/09 13:43:48;;;;;;;;;;;27.70;48.10;;;;;;5010583;28;19909;-72
2022/06/09 13:46:19;;;;;;;;;;;27.70;48.10;;;;;;5010601;28;19913;-71
2022/06/09 13:48:45;;;;;;;;;;;27.80;47.90;;;;;;5008556;28;19915;-71
2022/06/09 13:51:20;;;;;;;;;;;27.70;47.90;;;;;;5008062;28;19913;-71
2022/06/09 13:53:50;;;;;;;;;;;27.60;47.90;;;;;;5008305;28;20383;-71
2022/06/09 13:56:16;;;;;;;;;;;27.60;48.20;;;;;;5008238;28;19959;-71
2022/06/09 13:58:41;;;;;;;;;;;27.70;48.80;;;;;;5010589;28;19913;-71
2022/06/09 14:01:07;;;;;;;;;;;27.70;48.40;;;;;;5009850;28;20668;-71
2022/06/09 14:03:45;;;;;;;;;;;27.70;48.50;;;;;;5008199;28;20036;-71
2022/06/09 14:06:13;;;;;;;;;;;27.60;48.90;;;;;;5008386;28;20419;-71
2022/06/09 14:08:41;;;;;;;;;;;27.60;48.20;;;;;;5008177;28;19909;-71
2022/06/09 14:11:08;;;;;;;;;;;27.60;48.60;;;;;;5008858;28;19920;-71
2022/06/09 14:13:34;;;;;;;;;;;27.70;49.40;;;;;;5010679;28;19909;-71
2022/06/09 14:15:59;;;;;;;;;;;27.70;47.80;;;;;;5008538;28;19910;-71
2022/06/09 14:18:26;;;;;;;;;;;27.70;47.70;;;;;;5007088;28;19910;-71
2022/06/09 14:20:53;;;;;;;;;;;27.70;48.20;;;;;;5007115;28;19925;-71
2022/06/09 14:23:25;;;;;;;;;;;27.80;47.70;;;;;;5006403;28;20315;-71
2022/06/09 14:26:01;;;;;;;;;;;27.70;48.10;;;;;;5008100;28;19917;-71
2022/06/09 14:28:28;;;;;;;;;;;27.80;47.90;;;;;;5006647;28;19932;-72
2022/06/09 14:30:53;;;;;;;;;;;27.80;47.90;;;;;;5007372;28;20272;-71
2022/06/09 14:33:19;;;;;;;;;;;27.80;48.40;;;;;;5007452;28;19913;-71
2022/06/09 14:35:45;;;;;;;;;;;27.80;47.60;;;;;;5007022;28;20015;-71
2022/06/09 14:38:11;;;;;;;;;;;27.70;48.60;;;;;;5006865;28;20379;-72
2022/06/09 14:40:48;;;;;;;;;;;27.80;48.10;;;;;;5009167;28;19923;-72
2022/06/09 14:43:14;;;;;;;;;;;27.80;48.30;;;;;;5007505;28;19909;-71
2022/06/09 14:45:49;;;;;;;;;;;27.80;48.00;;;;;;5007240;28;19920;-71
2022/06/09 14:48:16;;;;;;;;;;;27.90;47.60;;;;;;5007169;28;19913;-71